Time;durP1;ratioP1;P1;durP2;ratioP2;P2;SDS_P1;SDS_P2;PMS_P1;PMS_P2;Temp;Humidity;BMP_temperature;BMP_pressure;BME280_temperature;BME280_humidity;BME280_pressure;Samples;Min_cycle;Max_cycle;Signal;HPM_P1;HPM_P2
2023/06/23 00:00:24;;;;;;;7.57;6.68;;;;;;;;;;10311627;28;20072;-58
2023/06/23 00:05:23;;;;;;;7.35;6.65;;;;;;;;;;10310719;28;20081;-59
2023/06/23 00:10:23;;;;;;;7.88;7.18;;;;;;;;;;10312338;28;20079;-59
2023/06/23 00:15:22;;;;;;;7.07;6.38;;;;;;;;;;10315964;28;20040;-58
2023/06/23 00:20:22;;;;;;;7.72;6.90;;;;;;;;;;10314611;28;20084;-58
2023/06/23 00:25:20;;;;;;;8.38;7.68;;;;;;;;;;10311870;28;20084;-59
2023/06/23 00:30:19;;;;;;;7.22;6.53;;;;;;;;;;10313686;28;20076;-59
2023/06/23 00:35:19;;;;;;;7.85;6.90;;;;;;;;;;10308762;28;20083;-59
2023/06/23 00:40:17;;;;;;;6.80;6.20;;;;;;;;;;10308413;28;20060;-60
2023/06/23 00:45:15;;;;;;;7.82;7.13;;;;;;;;;;10308308;28;20485;-59
2023/06/23 00:50:16;;;;;;;7.53;6.88;;;;;;;;;;10313271;28;20069;-61
2023/06/23 00:55:14;;;;;;;8.10;6.95;;;;;;;;;;10324577;28;20478;-60
2023/06/23 01:00:17;;;;;;;9.88;7.85;;;;;;;;;;10309404;28;20091;-59
2023/06/23 01:05:21;;;;;;;8.02;6.65;;;;;;;;;;10306256;28;20068;-59
2023/06/23 01:10:25;;;;;;;10.57;7.22;;;;;;;;;;10310704;28;20076;-59
2023/06/23 01:15:27;;;;;;;7.57;6.90;;;;;;;;;;10312160;28;20072;-59
2023/06/23 01:20:27;;;;;;;7.82;7.22;;;;;;;;;;10306001;28;20493;-59
2023/06/23 01:25:32;;;;;;;7.10;6.60;;;;;;;;;;10308542;28;20106;-59
2023/06/23 01:30:33;;;;;;;8.32;6.93;;;;;;;;;;10310600;28;20071;-59
2023/06/23 01:35:34;;;;;;;7.72;7.13;;;;;;;;;;10305327;28;20057;-59
2023/06/23 01:40:33;;;;;;;7.65;7.05;;;;;;;;;;10309799;28;20133;-58
2023/06/23 01:45:34;;;;;;;7.63;7.00;;;;;;;;;;10324743;28;20044;-60
2023/06/23 01:50:34;;;;;;;11.30;7.30;;;;;;;;;;10305433;28;20068;-59
2023/06/23 01:55:34;;;;;;;9.23;7.05;;;;;;;;;;10309465;28;20056;-59
2023/06/23 02:00:34;;;;;;;8.10;6.78;;;;;;;;;;10308263;28;20071;-59
2023/06/23 02:05:32;;;;;;;8.93;7.53;;;;;;;;;;10308654;28;20087;-59
2023/06/23 02:10:31;;;;;;;8.02;7.38;;;;;;;;;;10311842;28;20076;-59
2023/06/23 02:15:30;;;;;;;8.48;7.63;;;;;;;;;;10309939;28;20079;-59
2023/06/23 02:20:31;;;;;;;7.90;7.20;;;;;;;;;;10308429;28;20087;-58
2023/06/23 02:25:30;;;;;;;8.98;7.35;;;;;;;;;;10308848;28;20094;-59
2023/06/23 02:30:29;;;;;;;9.25;7.68;;;;;;;;;;10309127;28;20474;-59
2023/06/23 02:35:33;;;;;;;8.68;7.68;;;;;;;;;;10306739;28;20528;-59
2023/06/23 02:40:33;;;;;;;8.55;7.60;;;;;;;;;;10308108;28;20068;-60
2023/06/23 02:45:32;;;;;;;9.10;7.60;;;;;;;;;;10308335;28;20095;-58
2023/06/23 02:50:35;;;;;;;8.52;7.82;;;;;;;;;;10314183;28;20072;-59
2023/06/23 02:55:36;;;;;;;8.15;7.10;;;;;;;;;;10314564;28;20064;-59
2023/06/23 03:00:37;;;;;;;8.25;7.00;;;;;;;;;;10313482;28;20087;-60
2023/06/23 03:05:37;;;;;;;8.05;7.25;;;;;;;;;;10317000;28;20072;-59
2023/06/23 03:10:35;;;;;;;8.23;7.53;;;;;;;;;;10314808;28;20500;-59
2023/06/23 03:15:33;;;;;;;7.93;7.00;;;;;;;;;;10316648;28;20756;-59
2023/06/23 03:20:34;;;;;;;11.93;8.15;;;;;;;;;;10317411;28;20597;-60
2023/06/23 03:25:33;;;;;;;11.48;8.25;;;;;;;;;;10312024;28;20072;-59
2023/06/23 03:30:34;;;;;;;9.38;7.57;;;;;;;;;;10316301;28;20099;-59
2023/06/23 03:35:38;;;;;;;11.27;8.68;;;;;;;;;;10312592;28;20525;-59
2023/06/23 03:40:39;;;;;;;9.02;8.23;;;;;;;;;;10314959;28;20548;-59
2023/06/23 03:45:39;;;;;;;8.80;8.10;;;;;;;;;;10311410;28;20072;-59
2023/06/23 03:50:38;;;;;;;9.93;8.95;;;;;;;;;;10315697;28;20064;-60
2023/06/23 03:55:37;;;;;;;11.02;7.97;;;;;;;;;;10313577;28;20068;-59
2023/06/23 04:00:37;;;;;;;9.52;8.77;;;;;;;;;;10311735;28;20083;-60
2023/06/23 04:05:37;;;;;;;9.27;8.30;;;;;;;;;;10311711;28;20084;-59
2023/06/23 04:10:36;;;;;;;12.40;9.18;;;;;;;;;;10312667;28;20122;-60
2023/06/23 04:15:37;;;;;;;10.43;9.55;;;;;;;;;;10309662;28;20078;-59
2023/06/23 04:20:39;;;;;;;11.10;9.38;;;;;;;;;;10311719;28;20072;-59
2023/06/23 04:25:38;;;;;;;9.23;8.27;;;;;;;;;;10314817;28;20078;-59
2023/06/23 04:30:37;;;;;;;9.00;8.07;;;;;;;;;;10312073;28;20060;-60
2023/06/23 04:35:37;;;;;;;9.77;8.65;;;;;;;;;;10310930;28;20843;-59
2023/06/23 04:40:38;;;;;;;10.35;9.45;;;;;;;;;;10310400;28;20086;-59
2023/06/23 04:45:38;;;;;;;10.05;9.05;;;;;;;;;;10308932;28;20071;-60
2023/06/23 04:50:40;;;;;;;11.10;9.23;;;;;;;;;;10312538;28;20087;-59
2023/06/23 04:55:39;;;;;;;9.95;9.15;;;;;;;;;;10310483;28;20079;-58
2023/06/23 05:00:38;;;;;;;11.93;9.18;;;;;;;;;;10308758;28;20434;-59
2023/06/23 05:05:38;;;;;;;13.57;9.15;;;;;;;;;;10312533;28;20087;-59
2023/06/23 05:10:36;;;;;;;10.07;9.18;;;;;;;;;;10310606;28;20075;-60
2023/06/23 05:15:38;;;;;;;9.48;8.73;;;;;;;;;;10310492;28;20071;-61
2023/06/23 05:20:39;;;;;;;39.78;13.40;;;;;;;;;;10309251;28;20072;-59
2023/06/23 05:25:38;;;;;;;12.73;11.63;;;;;;;;;;10307778;28;20566;-59
2023/06/23 05:30:38;;;;;;;12.38;9.20;;;;;;;;;;10310243;28;20127;-59
2023/06/23 05:35:38;;;;;;;13.18;10.27;;;;;;;;;;10307887;28;20068;-57
2023/06/23 05:40:36;;;;;;;10.48;9.48;;;;;;;;;;10303344;28;20082;-59
2023/06/23 05:45:34;;;;;;;10.30;9.23;;;;;;;;;;10305989;28;20173;-61
2023/06/23 05:50:34;;;;;;;11.50;10.55;;;;;;;;;;10308953;28;20075;-59
2023/06/23 05:55:36;;;;;;;9.45;8.63;;;;;;;;;;10303164;28;20076;-62
2023/06/23 06:00:38;;;;;;;10.57;9.57;;;;;;;;;;10306990;28;20071;-62
2023/06/23 06:05:39;;;;;;;51.92;14.02;;;;;;;;;;10307462;28;20077;-62
2023/06/23 06:10:39;;;;;;;33.65;11.77;;;;;;;;;;10296099;28;20091;-61
2023/06/23 06:15:38;;;;;;;11.05;10.13;;;;;;;;;;10296836;28;20157;-62
2023/06/23 06:20:36;;;;;;;11.95;10.80;;;;;;;;;;10304080;28;20131;-61
2023/06/23 06:25:36;;;;;;;15.60;11.52;;;;;;;;;;10304091;28;20060;-59
2023/06/23 06:30:37;;;;;;;11.25;9.90;;;;;;;;;;10318457;28;20072;-60
2023/06/23 06:35:35;;;;;;;11.95;10.95;;;;;;;;;;10302537;28;20065;-61
2023/06/23 06:40:34;;;;;;;11.10;10.05;;;;;;;;;;10311791;28;20502;-60
2023/06/23 06:45:32;;;;;;;11.15;10.05;;;;;;;;;;10315303;28;20076;-61
2023/06/23 06:50:34;;;;;;;10.90;9.85;;;;;;;;;;10304321;28;20087;-60
2023/06/23 06:55:32;;;;;;;9.82;8.82;;;;;;;;;;10309963;28;20600;-61
2023/06/23 07:00:31;;;;;;;9.85;8.48;;;;;;;;;;10312440;28;20135;-59
2023/06/23 07:05:30;;;;;;;9.63;8.73;;;;;;;;;;10301365;28;20070;-60
2023/06/23 07:10:30;;;;;;;8.85;7.95;;;;;;;;;;10311369;28;20561;-61
2023/06/23 07:15:29;;;;;;;12.82;8.35;;;;;;;;;;10311255;28;20074;-61
2023/06/23 07:20:27;;;;;;;13.07;8.38;;;;;;;;;;10311098;28;20075;-60
2023/06/23 07:25:26;;;;;;;10.40;7.88;;;;;;;;;;10310995;28;20521;-61
2023/06/23 07:30:25;;;;;;;8.38;7.70;;;;;;;;;;10310821;28;20072;-60
2023/06/23 07:35:24;;;;;;;8.98;7.93;;;;;;;;;;10304245;28;20071;-61
2023/06/23 07:40:22;;;;;;;7.75;6.78;;;;;;;;;;10314957;28;20071;-61
2023/06/23 07:45:20;;;;;;;15.73;8.35;;;;;;;;;;10314034;28;20073;-60
2023/06/23 07:50:20;;;;;;;8.55;7.75;;;;;;;;;;10315244;28;20529;-60
2023/06/23 07:55:19;;;;;;;8.18;7.30;;;;;;;;;;10303498;28;20075;-60
2023/06/23 08:00:17;;;;;;;7.38;6.70;;;;;;;;;;10311155;28;20068;-62
2023/06/23 08:05:16;;;;;;;7.80;5.75;;;;;;;;;;10309521;28;20086;-59
2023/06/23 08:10:15;;;;;;;7.07;6.10;;;;;;;;;;10310605;28;20071;-63
2023/06/23 08:15:14;;;;;;;7.30;6.63;;;;;;;;;;10313766;28;20091;-62
2023/06/23 08:20:12;;;;;;;11.20;6.07;;;;;;;;;;10307257;28;20091;-61
2023/06/23 08:25:10;;;;;;;5.68;5.18;;;;;;;;;;10310927;28;20064;-61
2023/06/23 08:30:11;;;;;;;6.22;5.65;;;;;;;;;;10311908;28;20068;-62
2023/06/23 08:35:09;;;;;;;7.55;6.45;;;;;;;;;;10313326;28;20103;-61
2023/06/23 08:40:10;;;;;;;7.88;6.18;;;;;;;;;;10312850;28;20459;-61
2023/06/23 08:45:12;;;;;;;6.25;5.65;;;;;;;;;;10313693;28;20071;-62
2023/06/23 08:50:10;;;;;;;7.63;5.53;;;;;;;;;;10311111;28;20080;-60
2023/06/23 08:55:09;;;;;;;6.18;5.68;;;;;;;;;;10311881;28;20076;-61
2023/06/23 09:00:08;;;;;;;5.70;5.20;;;;;;;;;;10312986;28;20076;-61
2023/06/23 09:05:08;;;;;;;5.93;5.43;;;;;;;;;;10307990;28;20096;-60
2023/06/23 09:10:07;;;;;;;6.55;6.05;;;;;;;;;;10312459;28;20091;-61
2023/06/23 09:15:08;;;;;;;7.47;5.35;;;;;;;;;;10311420;28;20095;-61
2023/06/23 09:20:09;;;;;;;9.70;5.93;;;;;;;;;;10312616;28;20076;-62
2023/06/23 09:25:08;;;;;;;8.13;6.38;;;;;;;;;;10311394;28;20084;-62
2023/06/23 09:30:07;;;;;;;6.72;6.05;;;;;;;;;;10312397;28;20464;-61
2023/06/23 09:35:05;;;;;;;7.18;6.30;;;;;;;;;;10313409;28;20506;-61
2023/06/23 09:40:06;;;;;;;6.93;6.43;;;;;;;;;;10311382;28;20532;-60
2023/06/23 09:45:16;;;;;;;10.13;6.60;;;;;;;;;;10311820;28;20114;-61
2023/06/23 09:50:15;;;;;;;10.85;7.25;;;;;;;;;;10310922;28;20076;-62
2023/06/23 09:55:17;;;;;;;9.98;5.95;;;;;;;;;;10309531;28;20064;-62
2023/06/23 10:00:16;;;;;;;6.28;5.78;;;;;;;;;;10310594;28;20096;-61
2023/06/23 10:05:16;;;;;;;8.55;6.70;;;;;;;;;;10305443;28;20080;-60
2023/06/23 10:10:17;;;;;;;8.40;6.05;;;;;;;;;;10305666;28;20083;-62
2023/06/23 10:15:19;;;;;;;7.90;6.10;;;;;;;;;;10308745;28;20072;-61
2023/06/23 10:20:18;;;;;;;8.88;5.45;;;;;;;;;;10309103;28;20076;-61
2023/06/23 10:25:18;;;;;;;6.03;5.43;;;;;;;;;;10308127;28;20089;-62
2023/06/23 10:30:18;;;;;;;9.98;6.63;;;;;;;;;;10299989;28;20091;-61
2023/06/23 10:35:20;;;;;;;9.80;6.60;;;;;;;;;;10308591;28;20068;-61
2023/06/23 10:40:24;;;;;;;7.68;5.65;;;;;;;;;;10308937;28;20498;-62
2023/06/23 10:45:22;;;;;;;8.48;6.45;;;;;;;;;;10308927;28;20083;-62
2023/06/23 10:50:21;;;;;;;7.22;6.25;;;;;;;;;;10308076;28;20068;-61
2023/06/23 10:55:37;;;;;;;7.10;6.35;;;;;;;;;;10311526;28;20080;-61
2023/06/23 11:00:35;;;;;;;9.48;6.70;;;;;;;;;;10309371;28;20079;-62
2023/06/23 11:05:33;;;;;;;9.10;6.85;;;;;;;;;;10311884;28;20076;-62
2023/06/23 11:10:50;;;;;;;7.78;6.40;;;;;;;;;;10314131;28;20064;-62
2023/06/23 11:15:51;;;;;;;14.80;6.80;;;;;;;;;;10314148;28;20533;-61
2023/06/23 11:20:50;;;;;;;8.00;7.20;;;;;;;;;;10312236;28;20079;-62
2023/06/23 11:25:51;;;;;;;7.68;6.25;;;;;;;;;;10311727;28;20056;-61
2023/06/23 11:30:53;;;;;;;6.80;5.95;;;;;;;;;;10313477;28;20072;-61
2023/06/23 11:35:52;;;;;;;7.80;6.35;;;;;;;;;;10317116;28;20143;-61
2023/06/23 11:40:53;;;;;;;7.97;6.35;;;;;;;;;;10316776;28;20099;-63
2023/06/23 11:45:53;;;;;;;7.72;7.03;;;;;;;;;;10316336;28;20540;-62
2023/06/23 11:50:53;;;;;;;9.85;6.57;;;;;;;;;;10313730;28;20075;-62
2023/06/23 11:55:53;;;;;;;7.68;6.53;;;;;;;;;;10316180;28;20195;-61
2023/06/23 12:00:51;;;;;;;10.82;6.07;;;;;;;;;;10315709;28;20076;-62
2023/06/23 12:05:50;;;;;;;7.10;6.53;;;;;;;;;;10316278;28;20647;-62
2023/06/23 12:10:48;;;;;;;5.75;5.30;;;;;;;;;;10311566;28;20079;-61
2023/06/23 12:15:48;;;;;;;6.55;5.65;;;;;;;;;;10313672;28;20080;-61
2023/06/23 12:20:46;;;;;;;6.10;5.50;;;;;;;;;;10312889;28;20072;-61
2023/06/23 12:25:46;;;;;;;6.20;5.57;;;;;;;;;;10312519;28;20060;-60
2023/06/23 12:30:45;;;;;;;7.97;5.45;;;;;;;;;;10303978;28;20071;-61
2023/06/23 12:35:59;;;;;;;7.18;6.47;;;;;;;;;;10309331;28;20072;-61
2023/06/23 12:41:13;;;;;;;7.85;6.15;;;;;;;;;;10311461;28;20477;-62
2023/06/23 12:46:12;;;;;;;5.80;5.30;;;;;;;;;;10310072;28;20068;-62
2023/06/23 12:51:12;;;;;;;6.07;5.47;;;;;;;;;;10315466;28;20083;-62
2023/06/23 12:56:11;;;;;;;7.22;5.97;;;;;;;;;;10314443;28;20076;-62
2023/06/23 13:01:10;;;;;;;6.38;5.88;;;;;;;;;;10313441;28;20075;-62
2023/06/23 13:06:08;;;;;;;8.45;5.57;;;;;;;;;;10315044;28;20083;-62
2023/06/23 13:11:08;;;;;;;6.80;6.18;;;;;;;;;;10315449;28;20083;-62
2023/06/23 13:16:06;;;;;;;8.38;5.78;;;;;;;;;;10310201;28;20634;-61
2023/06/23 13:21:05;;;;;;;5.82;5.35;;;;;;;;;;10311235;28;20158;-62
2023/06/23 13:26:03;;;;;;;8.52;5.78;;;;;;;;;;10309568;28;20075;-61
2023/06/23 13:31:03;;;;;;;6.82;5.80;;;;;;;;;;10314375;28;20072;-62
2023/06/23 13:36:01;;;;;;;6.07;5.57;;;;;;;;;;10306304;28;20083;-62
2023/06/23 13:40:59;;;;;;;9.75;5.53;;;;;;;;;;10312594;28;20083;-62
2023/06/23 13:45:57;;;;;;;6.47;5.97;;;;;;;;;;10314286;28;20067;-62
2023/06/23 13:50:58;;;;;;;6.15;5.55;;;;;;;;;;10310562;28;20513;-63
2023/06/23 13:55:57;;;;;;;7.65;6.10;;;;;;;;;;10311146;28;20512;-62
2023/06/23 14:00:55;;;;;;;7.00;5.80;;;;;;;;;;10313625;28;20072;-63
2023/06/23 14:05:53;;;;;;;6.38;5.85;;;;;;;;;;10310572;28;20083;-62
2023/06/23 14:10:54;;;;;;;6.30;5.70;;;;;;;;;;10311574;28;20079;-60
2023/06/23 14:15:53;;;;;;;6.90;6.22;;;;;;;;;;10312157;28;20076;-61
2023/06/23 14:20:51;;;;;;;9.25;6.78;;;;;;;;;;10311108;28;20072;-61
2023/06/23 14:25:49;;;;;;;7.30;6.60;;;;;;;;;;10312459;28;20459;-60
2023/06/23 14:30:49;;;;;;;5.95;5.35;;;;;;;;;;10312797;28;20067;-60
2023/06/23 14:35:47;;;;;;;5.43;5.03;;;;;;;;;;10311741;28;20072;-60
2023/06/23 14:40:45;;;;;;;10.00;8.65;;;;;;;;;;10311301;28;20064;-60
2023/06/23 14:45:49;;;;;;;6.07;5.57;;;;;;;;;;10315222;28;20068;-61
2023/06/23 14:50:48;;;;;;;6.28;5.35;;;;;;;;;;10318521;28;20056;-60
2023/06/23 14:55:47;;;;;;;6.13;5.63;;;;;;;;;;10319248;28;20072;-61
2023/06/23 15:00:45;;;;;;;5.55;5.05;;;;;;;;;;10318529;28;20072;-60
2023/06/23 15:05:43;;;;;;;5.97;5.43;;;;;;;;;;10317799;28;20076;-61
2023/06/23 15:10:43;;;;;;;6.10;5.07;;;;;;;;;;10317809;28;20071;-60
2023/06/23 15:15:41;;;;;;;8.00;6.00;;;;;;;;;;10319267;28;20076;-61
2023/06/23 15:20:39;;;;;;;5.05;4.55;;;;;;;;;;10319471;28;20080;-61
2023/06/23 15:25:37;;;;;;;9.23;6.88;;;;;;;;;;10319662;28;20060;-61
2023/06/23 15:30:37;;;;;;;15.82;6.25;;;;;;;;;;10319011;28;20072;-62
2023/06/23 15:35:37;;;;;;;10.77;5.23;;;;;;;;;;10309514;28;20068;-59
2023/06/23 15:40:38;;;;;;;10.35;6.72;;;;;;;;;;10317144;28;20072;-60
2023/06/23 15:45:41;;;;;;;18.80;7.15;;;;;;;;;;10317447;28;20068;-60
2023/06/23 15:50:40;;;;;;;13.60;6.13;;;;;;;;;;10311645;28;20068;-59
2023/06/23 15:55:38;;;;;;;9.15;5.22;;;;;;;;;;10301672;28;20166;-58
2023/06/23 16:00:36;;;;;;;16.05;6.20;;;;;;;;;;10306859;28;20075;-60
2023/06/23 16:05:36;;;;;;;29.42;14.88;;;;;;;;;;10310997;28;20091;-60
2023/06/23 16:10:36;;;;;;;12.37;9.47;;;;;;;;;;10307332;28;20068;-61
2023/06/23 16:15:34;;;;;;;16.70;7.95;;;;;;;;;;10301936;28;20075;-59
2023/06/23 16:20:33;;;;;;;11.65;5.75;;;;;;;;;;10298785;28;20069;-61
2023/06/23 16:25:33;;;;;;;9.63;7.68;;;;;;;;;;10307657;28;20462;-60
2023/06/23 16:30:32;;;;;;;7.00;6.30;;;;;;;;;;10297505;28;20559;-59
2023/06/23 16:35:30;;;;;;;14.30;10.15;;;;;;;;;;10296209;28;20067;-60
2023/06/23 16:40:29;;;;;;;15.80;12.00;;;;;;;;;;10297648;28;20064;-59
2023/06/23 16:45:29;;;;;;;10.55;7.25;;;;;;;;;;10298078;28;20063;-58
2023/06/23 16:50:28;;;;;;;8.38;7.43;;;;;;;;;;10301515;28;20059;-59
2023/06/23 16:55:26;;;;;;;7.13;6.43;;;;;;;;;;10297226;28;20727;-59
2023/06/23 17:00:27;;;;;;;12.45;8.57;;;;;;;;;;10299875;28;20070;-60
2023/06/23 17:05:27;;;;;;;14.90;13.50;;;;;;;;;;10309143;28;20084;-60
2023/06/23 17:10:25;;;;;;;10.43;7.53;;;;;;;;;;10307119;28;20497;-61
2023/06/23 17:15:23;;;;;;;12.88;6.78;;;;;;;;;;10304690;28;20080;-60
2023/06/23 17:20:21;;;;;;;11.60;8.80;;;;;;;;;;10309521;28;20068;-59
2023/06/23 17:25:21;;;;;;;6.60;5.63;;;;;;;;;;10310709;28;20075;-60
2023/06/23 17:30:19;;;;;;;9.25;8.35;;;;;;;;;;10313020;28;20068;-60
2023/06/23 17:35:20;;;;;;;6.63;6.03;;;;;;;;;;10312116;28;20076;-60
2023/06/23 17:40:20;;;;;;;12.55;8.32;;;;;;;;;;10310192;28;20064;-59
2023/06/23 17:45:19;;;;;;;7.15;6.22;;;;;;;;;;10310584;28;20102;-61
2023/06/23 17:50:18;;;;;;;17.00;7.22;;;;;;;;;;10312574;28;20077;-60
2023/06/23 17:55:16;;;;;;;7.25;5.65;;;;;;;;;;10312992;28;20071;-60
2023/06/23 18:00:14;;;;;;;7.10;6.50;;;;;;;;;;10312329;28;20580;-59
2023/06/23 18:05:14;;;;;;;8.25;7.10;;;;;;;;;;10308885;28;20088;-60
2023/06/23 18:10:12;;;;;;;7.40;6.70;;;;;;;;;;10305669;28;20076;-59
2023/06/23 18:15:11;;;;;;;8.45;6.40;;;;;;;;;;10309594;28;20068;-60
2023/06/23 18:20:09;;;;;;;11.15;6.30;;;;;;;;;;10309446;28;20064;-60
2023/06/23 18:25:10;;;;;;;11.98;6.85;;;;;;;;;;10318976;28;20093;-61
2023/06/23 18:30:08;;;;;;;7.45;6.68;;;;;;;;;;10317621;28;20072;-60
2023/06/23 18:35:07;;;;;;;6.78;5.75;;;;;;;;;;10320714;28;20065;-60
2023/06/23 18:40:06;;;;;;;10.65;6.28;;;;;;;;;;10311475;28;20076;-59
2023/06/23 18:45:07;;;;;;;10.45;6.60;;;;;;;;;;10316852;28;20083;-60
2023/06/23 18:50:06;;;;;;;7.38;6.55;;;;;;;;;;10314361;28;20183;-59
2023/06/23 18:55:04;;;;;;;11.25;7.53;;;;;;;;;;10316298;28;20385;-61
2023/06/23 19:00:05;;;;;;;8.80;6.93;;;;;;;;;;10316517;28;20086;-60
2023/06/23 19:05:05;;;;;;;14.60;8.98;;;;;;;;;;10317290;28;20080;-61
2023/06/23 19:10:03;;;;;;;16.38;13.23;;;;;;;;;;10314098;28;20071;-61
2023/06/23 19:15:02;;;;;;;7.88;7.22;;;;;;;;;;10314197;28;20083;-60
2023/06/23 19:20:00;;;;;;;9.55;6.20;;;;;;;;;;10309491;28;20079;-59
2023/06/23 19:25:04;;;;;;;5.93;5.32;;;;;;;;;;10329857;28;20083;-60
2023/06/23 19:30:02;;;;;;;8.75;6.95;;;;;;;;;;10313700;28;20091;-60
2023/06/23 19:35:00;;;;;;;6.47;5.97;;;;;;;;;;10316048;28;20095;-60
2023/06/23 19:40:01;;;;;;;8.20;5.22;;;;;;;;;;10309245;28;20075;-59
2023/06/23 19:45:01;;;;;;;6.00;5.50;;;;;;;;;;10312626;28;20466;-60
2023/06/23 19:50:01;;;;;;;5.32;4.93;;;;;;;;;;10313194;28;20122;-62
2023/06/23 19:54:59;;;;;;;6.18;5.13;;;;;;;;;;10316485;28;20059;-60
2023/06/23 19:59:57;;;;;;;5.53;5.00;;;;;;;;;;10309063;28;20064;-61
2023/06/23 20:04:57;;;;;;;5.18;4.78;;;;;;;;;;10311828;28;20079;-60
2023/06/23 20:09:55;;;;;;;5.80;5.20;;;;;;;;;;10312526;28;20068;-60
2023/06/23 20:14:53;;;;;;;5.68;5.18;;;;;;;;;;10314249;28;20354;-60
2023/06/23 20:19:51;;;;;;;7.07;5.28;;;;;;;;;;10309031;28;20076;-60
2023/06/23 20:24:51;;;;;;;5.78;5.18;;;;;;;;;;10311594;28;20064;-59
2023/06/23 20:29:49;;;;;;;7.72;6.65;;;;;;;;;;10312645;28;20071;-60
2023/06/23 20:34:47;;;;;;;5.72;5.25;;;;;;;;;;10312333;28;20060;-60
2023/06/23 20:39:47;;;;;;;7.90;7.10;;;;;;;;;;10316055;28;20494;-60
2023/06/23 20:44:46;;;;;;;6.30;5.28;;;;;;;;;;10313651;28;20072;-59
2023/06/23 20:49:45;;;;;;;5.28;4.88;;;;;;;;;;10311639;28;20079;-60
2023/06/23 20:54:43;;;;;;;7.57;4.82;;;;;;;;;;10314045;28;20064;-59
2023/06/23 20:59:41;;;;;;;5.50;5.00;;;;;;;;;;10312952;28;20075;-59
2023/06/23 21:04:41;;;;;;;6.60;6.00;;;;;;;;;;10299998;28;20076;-59
2023/06/23 21:09:39;;;;;;;5.65;5.15;;;;;;;;;;10311048;28;20083;-58
2023/06/23 21:14:38;;;;;;;4.97;4.57;;;;;;;;;;10311684;28;20072;-59
2023/06/23 21:19:41;;;;;;;;;;;;;;;;;;10311041;28;20098;-61
2023/06/23 21:24:40;;;;;;;5.55;5.05;;;;;;;;;;10311704;28;19979;-60
2023/06/23 21:29:39;;;;;;;6.88;5.13;;;;;;;;;;10314122;28;20072;-60
2023/06/23 21:34:37;;;;;;;6.80;5.63;;;;;;;;;;10311957;28;20064;-60
2023/06/23 21:39:35;;;;;;;6.93;5.53;;;;;;;;;;10309921;28;20079;-58
2023/06/23 21:44:35;;;;;;;8.18;5.78;;;;;;;;;;10311964;28;20082;-59
2023/06/23 21:49:34;;;;;;;7.03;5.88;;;;;;;;;;10312051;28;20068;-59
2023/06/23 21:54:32;;;;;;;5.45;5.05;;;;;;;;;;10312883;28;20075;-59
2023/06/23 21:59:31;;;;;;;6.28;5.78;;;;;;;;;;10304113;28;20655;-59
2023/06/23 22:04:30;;;;;;;6.65;5.88;;;;;;;;;;10309475;28;20088;-58
2023/06/23 22:09:29;;;;;;;6.30;5.80;;;;;;;;;;10312623;28;20076;-59
2023/06/23 22:14:27;;;;;;;6.30;5.10;;;;;;;;;;10311780;28;20501;-59
2023/06/23 22:19:25;;;;;;;5.78;5.20;;;;;;;;;;10312346;28;20087;-59
2023/06/23 22:24:25;;;;;;;5.10;4.68;;;;;;;;;;10313089;28;20075;-59
2023/06/23 22:29:23;;;;;;;8.23;6.05;;;;;;;;;;10311598;28;20071;-59
2023/06/23 22:34:22;;;;;;;6.43;5.93;;;;;;;;;;10312732;28;20075;-60
2023/06/23 22:39:20;;;;;;;8.50;5.80;;;;;;;;;;10313736;28;20513;-60
2023/06/23 22:44:20;;;;;;;5.65;5.15;;;;;;;;;;10312831;28;20536;-54
2023/06/23 22:49:18;;;;;;;9.15;5.10;;;;;;;;;;10313491;28;20083;-59
2023/06/23 22:54:17;;;;;;;5.70;5.28;;;;;;;;;;10312945;28;20055;-58
2023/06/23 22:59:15;;;;;;;4.97;4.50;;;;;;;;;;10310502;28;20080;-60
2023/06/23 23:04:16;;;;;;;10.75;5.95;;;;;;;;;;10312963;28;20425;-60
2023/06/23 23:09:14;;;;;;;9.38;5.60;;;;;;;;;;10318495;28;20076;-59
2023/06/23 23:14:12;;;;;;;5.03;4.63;;;;;;;;;;10317620;28;20510;-59
2023/06/23 23:19:14;;;;;;;5.80;5.28;;;;;;;;;;10317436;28;20103;-59
2023/06/23 23:24:19;;;;;;;6.80;4.95;;;;;;;;;;10319374;28;20593;-59
2023/06/23 23:29:19;;;;;;;5.95;5.15;;;;;;;;;;10318154;28;20068;-59
2023/06/23 23:34:17;;;;;;;5.57;5.03;;;;;;;;;;10318312;28;20064;-59
2023/06/23 23:39:17;;;;;;;7.72;5.80;;;;;;;;;;10319133;28;20080;-60
2023/06/23 23:44:16;;;;;;;6.60;6.00;;;;;;;;;;10317103;28;20078;-58
2023/06/23 23:49:16;;;;;;;8.60;7.78;;;;;;;;;;10318249;28;20502;-60
2023/06/23 23:54:14;;;;;;;9.25;8.45;;;;;;;;;;10317323;28;20072;-58
2023/06/23 23:59:17;;;;;;;9.52;8.50;;;;;;;;;;10317097;28;20075;-59
